Time;durP1;ratioP1;P1;durP2;ratioP2;P2;SDS_P1;SDS_P2;PMS_P1;PMS_P2;Temp;Humidity;BMP_temperature;BMP_pressure;BME280_temperature;BME280_humidity;BME280_pressure;Samples;Min_cycle;Max_cycle;Signal;HPM_P1;HPM_P2
2023/03/19 00:01:23;;;;;;;1999.90;999.90;;;7.00;99.90;;;;;;5035489;28;20034;-74
2023/03/19 00:03:49;;;;;;;1999.90;999.90;;;6.90;99.90;;;;;;5035557;28;20383;-75
2023/03/19 00:06:15;;;;;;;1999.90;999.90;;;6.80;99.90;;;;;;5034197;28;20037;-74
2023/03/19 00:08:40;;;;;;;1999.90;999.90;;;6.70;99.90;;;;;;5035361;28;20034;-75
2023/03/19 00:11:11;;;;;;;1999.90;999.90;;;6.70;99.90;;;;;;5035705;28;20041;-75
2023/03/19 00:13:37;;;;;;;1999.90;999.90;;;6.70;99.90;;;;;;5035295;28;20033;-75
2023/03/19 00:16:10;;;;;;;1999.90;999.90;;;6.70;99.90;;;;;;5035440;28;20037;-75
2023/03/19 00:18:36;;;;;;;1999.90;999.90;;;6.70;99.90;;;;;;5035446;28;20038;-74
2023/03/19 00:21:01;;;;;;;1999.90;999.90;;;6.70;99.90;;;;;;5035670;28;20443;-75
2023/03/19 00:23:27;;;;;;;1999.90;999.90;;;6.70;99.90;;;;;;5035420;28;20038;-75
2023/03/19 00:25:53;;;;;;;1999.90;999.90;;;6.70;99.90;;;;;;5035310;28;20041;-75
2023/03/19 00:28:19;;;;;;;1999.90;999.90;;;6.70;99.90;;;;;;5033599;28;20041;-75
2023/03/19 00:30:44;;;;;;;1999.90;999.90;;;6.70;99.90;;;;;;5035216;28;20030;-75
2023/03/19 00:33:10;;;;;;;1999.90;999.90;;;6.70;99.90;;;;;;5035370;28;20038;-75
2023/03/19 00:35:38;;;;;;;1999.90;999.90;;;6.80;99.90;;;;;;5033389;28;20030;-75
2023/03/19 00:38:03;;;;;;;1999.90;999.90;;;6.80;99.90;;;;;;5033607;28;20041;-75
2023/03/19 00:40:29;;;;;;;1999.90;999.90;;;6.90;99.90;;;;;;5035039;28;20092;-74
2023/03/19 00:42:55;;;;;;;1999.90;999.90;;;7.00;99.90;;;;;;5035091;28;20491;-75
2023/03/19 00:45:20;;;;;;;1999.90;999.90;;;7.00;99.90;;;;;;5034827;28;20030;-75
2023/03/19 00:47:46;;;;;;;1999.90;999.90;;;7.10;99.90;;;;;;5033530;28;20065;-75
2023/03/19 00:50:12;;;;;;;1999.90;999.90;;;7.20;99.90;;;;;;5033069;28;20029;-75
2023/03/19 00:52:37;;;;;;;1999.90;999.90;;;7.20;99.90;;;;;;5034515;28;20365;-74
2023/03/19 00:55:03;;;;;;;1999.90;999.90;;;7.20;99.90;;;;;;5033382;28;20041;-75
2023/03/19 00:57:29;;;;;;;1999.90;999.90;;;7.30;99.90;;;;;;5033508;28;20049;-75
2023/03/19 00:59:54;;;;;;;1999.90;999.90;;;7.40;99.90;;;;;;5034512;28;20120;-75
2023/03/19 01:02:20;;;;;;;1999.90;999.90;;;7.40;99.90;;;;;;5033439;28;20038;-74
2023/03/19 01:04:49;;;;;;;1999.90;999.90;;;7.50;99.90;;;;;;5034320;28;20038;-75
2023/03/19 01:07:15;;;;;;;1999.90;999.90;;;7.60;99.90;;;;;;5034894;28;20088;-75
2023/03/19 01:09:40;;;;;;;1999.90;999.90;;;7.60;99.90;;;;;;5034813;28;20038;-75
2023/03/19 01:12:06;;;;;;;1999.90;999.90;;;7.70;99.90;;;;;;5034831;28;20038;-75
2023/03/19 01:14:32;;;;;;;1999.90;999.90;;;7.80;99.90;;;;;;5032925;28;20029;-75
2023/03/19 01:16:58;;;;;;;1999.90;999.90;;;7.80;99.90;;;;;;5034217;28;20038;-74
2023/03/19 01:19:24;;;;;;;1999.90;999.90;;;7.90;99.90;;;;;;5034552;28;20069;-75
2023/03/19 01:21:49;;;;;;;1999.90;999.90;;;7.90;99.90;;;;;;5033109;28;20030;-75
2023/03/19 01:24:15;;;;;;;1999.90;999.90;;;7.80;99.90;;;;;;5034216;28;20034;-75
2023/03/19 01:26:41;;;;;;;1999.90;999.90;;;7.80;99.90;;;;;;5033127;28;20034;-75
2023/03/19 01:29:07;;;;;;;1999.90;999.90;;;7.90;99.90;;;;;;5033983;28;20030;-75
2023/03/19 01:31:34;;;;;;;1999.90;999.90;;;7.90;99.90;;;;;;5034532;28;20096;-75
2023/03/19 01:34:00;;;;;;;1999.90;999.90;;;7.90;99.90;;;;;;5032536;28;20492;-75
2023/03/19 01:36:26;;;;;;;1999.90;999.90;;;7.90;99.90;;;;;;5034375;28;20561;-75
2023/03/19 01:38:52;;;;;;;1999.90;999.90;;;7.90;99.90;;;;;;5034151;28;20502;-75
2023/03/19 01:41:18;;;;;;;1999.90;999.90;;;7.90;99.90;;;;;;5034025;28;20034;-75
2023/03/19 01:43:44;;;;;;;1999.90;999.90;;;7.80;99.90;;;;;;5032587;28;20522;-75
2023/03/19 01:46:23;;;;;;;1999.90;999.90;;;7.80;99.90;;;;;;5034160;28;20040;-75
2023/03/19 01:48:52;;;;;;;1999.90;999.90;;;7.90;99.90;;;;;;5034302;28;20515;-75
2023/03/19 01:51:25;;;;;;;1999.90;999.90;;;7.90;99.90;;;;;;5034034;28;20550;-75
2023/03/19 01:53:58;;;;;;;1999.90;999.90;;;7.90;99.90;;;;;;5034059;28;20038;-75
2023/03/19 01:56:31;;;;;;;1999.90;999.90;;;7.90;99.90;;;;;;5032937;28;20034;-75
2023/03/19 01:59:02;;;;;;;1999.90;999.90;;;8.00;99.90;;;;;;5032618;28;20041;-75
2023/03/19 02:01:32;;;;;;;1999.90;999.90;;;8.00;99.90;;;;;;5034139;28;20034;-75
2023/03/19 02:03:59;;;;;;;1999.90;999.90;;;8.10;99.90;;;;;;5033777;28;20040;-75
2023/03/19 02:06:27;;;;;;;1999.90;999.90;;;8.10;99.90;;;;;;5037563;28;20097;-75
2023/03/19 02:08:53;;;;;;;1999.90;999.90;;;8.10;99.90;;;;;;5035808;28;20432;-75
2023/03/19 02:11:20;;;;;;;1999.90;999.90;;;8.10;99.90;;;;;;5037471;28;20038;-75
2023/03/19 02:13:46;;;;;;;1999.90;999.90;;;8.10;99.90;;;;;;5036633;28;20530;-75
2023/03/19 02:16:13;;;;;;;1999.90;999.90;;;8.10;99.90;;;;;;5037144;28;20100;-74
2023/03/19 02:18:39;;;;;;;1999.90;999.90;;;8.10;99.90;;;;;;5037485;28;20125;-74
2023/03/19 02:21:15;;;;;;;1999.90;999.90;;;8.10;99.90;;;;;;5037903;28;20034;-75
2023/03/19 02:23:43;;;;;;;1999.90;999.90;;;8.20;99.90;;;;;;5035836;28;20542;-75
2023/03/19 02:26:12;;;;;;;1999.90;999.90;;;8.30;99.90;;;;;;5036820;28;20093;-75
2023/03/19 02:28:42;;;;;;;1999.90;999.90;;;8.30;99.90;;;;;;5035708;28;20488;-75
2023/03/19 02:31:08;;;;;;;1999.90;999.90;;;8.40;99.90;;;;;;5036879;28;20121;-75
2023/03/19 02:33:34;;;;;;;1999.90;999.90;;;8.40;99.90;;;;;;5037067;28;20108;-75
2023/03/19 02:36:02;;;;;;;1999.90;999.90;;;8.40;99.90;;;;;;5035394;28;20034;-75
2023/03/19 02:38:31;;;;;;;1999.90;999.90;;;8.40;99.90;;;;;;5036724;28;20058;-75
2023/03/19 02:41:06;;;;;;;1999.90;999.90;;;8.40;99.90;;;;;;5035513;28;20467;-75
2023/03/19 02:43:34;;;;;;;1999.90;999.90;;;8.50;99.90;;;;;;5036798;28;20569;-75
2023/03/19 02:46:01;;;;;;;1999.90;999.90;;;8.50;99.90;;;;;;5036607;28;20108;-75
2023/03/19 02:48:27;;;;;;;1999.90;999.90;;;8.40;99.90;;;;;;5036713;28;20038;-75
2023/03/19 02:50:53;;;;;;;1999.90;999.90;;;8.40;99.90;;;;;;5036998;28;20034;-75
2023/03/19 02:53:19;;;;;;;1999.90;999.90;;;8.50;99.90;;;;;;5036611;28;20054;-75
2023/03/19 02:55:45;;;;;;;1999.90;999.90;;;8.50;99.90;;;;;;5036699;28;20165;-75
2023/03/19 02:58:11;;;;;;;1999.90;999.90;;;8.50;99.90;;;;;;5036477;28;20042;-75
2023/03/19 03:00:37;;;;;;;1999.90;999.90;;;8.60;99.90;;;;;;5035220;28;20087;-75
2023/03/19 03:03:05;;;;;;;1999.90;999.90;;;8.70;99.90;;;;;;5036864;28;20030;-75
2023/03/19 03:05:31;;;;;;;1999.90;999.90;;;8.80;99.90;;;;;;5034770;28;20034;-75
2023/03/19 03:07:57;;;;;;;1999.90;999.90;;;8.80;99.90;;;;;;5035234;28;20073;-75
2023/03/19 03:10:23;;;;;;;1999.90;999.90;;;8.80;99.90;;;;;;5036465;28;20113;-75
2023/03/19 03:12:48;;;;;;;1999.90;999.90;;;8.80;99.90;;;;;;5036391;28;20500;-75
2023/03/19 03:15:14;;;;;;;1999.90;999.90;;;8.80;99.90;;;;;;5034609;28;20512;-75
2023/03/19 03:17:40;;;;;;;1999.90;999.90;;;8.80;99.90;;;;;;5035597;28;20041;-75
2023/03/19 03:20:08;;;;;;;1999.90;999.90;;;8.70;99.90;;;;;;5036328;28;20117;-75
2023/03/19 03:22:34;;;;;;;1999.90;999.90;;;8.70;99.90;;;;;;5036304;28;20100;-75
2023/03/19 03:25:00;;;;;;;1999.90;999.90;;;8.70;99.90;;;;;;5036306;28;20070;-75
2023/03/19 03:27:25;;;;;;;1999.90;999.90;;;8.70;99.90;;;;;;5036423;28;20065;-76
2023/03/19 03:29:51;;;;;;;1999.90;999.90;;;8.70;99.90;;;;;;5036153;28;20053;-75
2023/03/19 03:32:17;;;;;;;1999.90;999.90;;;8.60;99.90;;;;;;5035880;28;20037;-75
2023/03/19 03:34:44;;;;;;;1999.90;999.90;;;8.50;99.90;;;;;;5036072;28;20034;-75
2023/03/19 03:37:10;;;;;;;1999.90;999.90;;;8.40;99.90;;;;;;5036041;28;20029;-75
2023/03/19 03:39:36;;;;;;;1999.90;999.90;;;8.40;99.90;;;;;;5034496;28;20030;-75
2023/03/19 03:42:02;;;;;;;1999.90;999.90;;;8.40;99.90;;;;;;5034655;28;20042;-75
2023/03/19 03:44:27;;;;;;;1999.90;999.90;;;8.40;99.90;;;;;;5035664;28;20538;-75
2023/03/19 03:46:53;;;;;;;1999.90;999.90;;;8.40;99.90;;;;;;5034307;28;20085;-75
2023/03/19 03:49:19;;;;;;;1999.90;999.90;;;8.30;99.90;;;;;;5035785;28;20053;-75
2023/03/19 03:51:45;;;;;;;1999.90;999.90;;;8.20;99.90;;;;;;5036010;28;20033;-75
2023/03/19 03:54:10;;;;;;;1999.90;999.90;;;8.10;99.90;;;;;;5035509;28;20855;-75
2023/03/19 03:56:36;;;;;;;1999.90;999.90;;;8.10;99.90;;;;;;5036031;28;20084;-75
2023/03/19 03:59:02;;;;;;;1999.90;999.90;;;8.10;99.90;;;;;;5033534;28;20069;-75
2023/03/19 04:01:28;;;;;;;1999.90;999.90;;;8.10;99.90;;;;;;5035838;28;20058;-75
2023/03/19 04:03:54;;;;;;;1999.90;999.90;;;8.10;99.90;;;;;;5033831;28;20129;-75
2023/03/19 04:06:21;;;;;;;1999.90;999.90;;;8.10;99.90;;;;;;5035561;28;20480;-75
2023/03/19 04:08:47;;;;;;;1999.90;999.90;;;8.10;99.90;;;;;;5035362;28;20084;-75
2023/03/19 04:11:13;;;;;;;1999.90;999.90;;;8.00;99.90;;;;;;5035759;28;20022;-75
2023/03/19 04:13:40;;;;;;;1999.90;999.90;;;8.00;99.90;;;;;;5035558;28;20045;-75
2023/03/19 04:16:08;;;;;;;1999.90;999.90;;;8.00;99.90;;;;;;5035158;28;20156;-75
2023/03/19 04:18:34;;;;;;;1999.90;999.90;;;8.00;99.90;;;;;;5035005;28;20041;-75
2023/03/19 04:21:00;;;;;;;1999.90;999.90;;;8.00;99.90;;;;;;5035385;28;20033;-75
2023/03/19 04:23:26;;;;;;;1999.90;999.90;;;7.90;99.90;;;;;;5035500;28;20045;-75
2023/03/19 04:25:52;;;;;;;1999.90;999.90;;;7.90;99.90;;;;;;5033854;28;20034;-75
2023/03/19 04:28:17;;;;;;;1999.90;999.90;;;7.90;99.90;;;;;;5034243;28;20030;-75
2023/03/19 04:30:43;;;;;;;1999.90;999.90;;;7.90;99.90;;;;;;5033881;28;20057;-75
2023/03/19 04:33:09;;;;;;;1999.90;999.90;;;7.90;99.90;;;;;;5035271;28;20488;-75
2023/03/19 04:35:35;;;;;;;1999.90;999.90;;;7.80;99.90;;;;;;5033580;28;20029;-75
2023/03/19 04:38:01;;;;;;;1999.90;999.90;;;7.80;99.90;;;;;;5035488;28;20476;-75
2023/03/19 04:40:27;;;;;;;1999.90;999.90;;;7.80;99.90;;;;;;5035089;28;20540;-75
2023/03/19 04:42:53;;;;;;;1999.90;999.90;;;7.80;99.90;;;;;;5035075;28;20029;-75
2023/03/19 04:45:19;;;;;;;1999.90;999.90;;;7.80;99.90;;;;;;5033495;28;20065;-74
2023/03/19 04:47:44;;;;;;;1999.90;999.90;;;7.80;99.90;;;;;;5033690;28;20169;-75
2023/03/19 04:50:11;;;;;;;1999.90;999.90;;;7.80;99.90;;;;;;5035080;28;20369;-75
2023/03/19 04:52:38;;;;;;;1999.90;999.90;;;7.80;99.90;;;;;;5034978;28;20049;-75
2023/03/19 04:55:05;;;;;;;1999.90;999.90;;;7.80;99.90;;;;;;5033251;28;20472;-75
2023/03/19 04:57:31;;;;;;;1999.90;999.90;;;7.80;99.90;;;;;;5034953;28;20042;-75
2023/03/19 04:59:56;;;;;;;1999.90;999.90;;;7.80;99.90;;;;;;5032551;28;20030;-75
2023/03/19 05:02:22;;;;;;;1999.90;999.90;;;7.80;99.90;;;;;;5034807;28;20504;-75
2023/03/19 05:04:47;;;;;;;1999.90;999.90;;;7.70;99.90;;;;;;5034731;28;20057;-76
2023/03/19 05:07:13;;;;;;;1999.90;999.90;;;7.80;99.90;;;;;;5033482;28;20350;-75
2023/03/19 05:09:39;;;;;;;1999.90;999.90;;;7.70;99.90;;;;;;5035004;28;20030;-75
2023/03/19 05:12:05;;;;;;;1999.90;999.90;;;7.80;99.90;;;;;;5034665;28;20522;-75
2023/03/19 05:14:31;;;;;;;1999.90;999.90;;;7.70;99.90;;;;;;5033000;28;20038;-75
2023/03/19 05:16:56;;;;;;;1999.90;999.90;;;7.80;99.90;;;;;;5033916;28;20029;-75
2023/03/19 05:19:22;;;;;;;1999.90;999.90;;;7.90;99.90;;;;;;5034080;28;20046;-75
2023/03/19 05:21:48;;;;;;;1999.90;999.90;;;7.90;99.90;;;;;;5034798;28;20041;-76
2023/03/19 05:24:13;;;;;;;1999.90;999.90;;;7.90;99.90;;;;;;5032972;28;20041;-76
2023/03/19 05:26:39;;;;;;;1999.90;999.90;;;7.90;99.90;;;;;;5034659;28;20370;-76
2023/03/19 05:29:05;;;;;;;1999.90;999.90;;;8.00;99.90;;;;;;5034568;28;20038;-76
2023/03/19 05:31:30;;;;;;;1999.90;999.90;;;8.00;99.90;;;;;;5034578;28;20514;-76
2023/03/19 05:33:56;;;;;;;1999.90;999.90;;;8.00;99.90;;;;;;5033726;28;20046;-76
2023/03/19 05:36:22;;;;;;;1999.90;999.90;;;8.00;99.90;;;;;;5034351;28;20041;-76
2023/03/19 05:38:47;;;;;;;1999.90;999.90;;;8.00;99.90;;;;;;5034342;28;20407;-76
2023/03/19 05:41:13;;;;;;;1999.90;999.90;;;8.10;99.90;;;;;;5037827;28;20484;-76
2023/03/19 05:43:38;;;;;;;1999.90;999.90;;;8.10;99.90;;;;;;5036390;28;20038;-75
2023/03/19 05:46:04;;;;;;;1999.90;999.90;;;8.10;99.90;;;;;;5038103;28;20041;-76
2023/03/19 05:48:29;;;;;;;1999.90;999.90;;;8.10;99.90;;;;;;5037907;28;20034;-76
2023/03/19 05:50:55;;;;;;;1999.90;999.90;;;8.20;99.90;;;;;;5037650;28;20475;-76
2023/03/19 05:53:21;;;;;;;1999.90;999.90;;;8.20;99.90;;;;;;5037880;28;20038;-76
2023/03/19 05:55:47;;;;;;;1999.90;999.90;;;8.20;99.90;;;;;;5036149;28;20034;-76
2023/03/19 05:58:13;;;;;;;1999.90;999.90;;;8.30;99.90;;;;;;5037167;28;20510;-75
2023/03/19 06:00:38;;;;;;;1999.90;999.90;;;8.20;99.90;;;;;;5037777;28;20092;-76
2023/03/19 06:03:04;;;;;;;1999.90;999.90;;;8.30;99.90;;;;;;5037783;28;20045;-76
2023/03/19 06:05:30;;;;;;;1999.90;999.90;;;8.30;99.90;;;;;;5037483;28;20089;-76
2023/03/19 06:07:55;;;;;;;1999.90;999.90;;;8.20;99.90;;;;;;5036133;28;20511;-75
2023/03/19 06:10:21;;;;;;;1999.90;999.90;;;8.10;99.90;;;;;;5037383;28;20037;-75
2023/03/19 06:12:46;;;;;;;1999.90;999.90;;;8.10;99.90;;;;;;5037465;28;20038;-75
2023/03/19 06:15:12;;;;;;;1999.90;999.90;;;8.10;99.90;;;;;;5037152;28;20033;-76
2023/03/19 06:17:38;;;;;;;1999.90;999.90;;;8.20;99.90;;;;;;5037023;28;20070;-76
2023/03/19 06:20:03;;;;;;;1999.90;999.90;;;8.20;99.90;;;;;;5037429;28;20531;-75
2023/03/19 06:22:29;;;;;;;1999.90;999.90;;;8.30;99.90;;;;;;5037210;28;20508;-75
2023/03/19 06:24:55;;;;;;;1999.90;999.90;;;8.30;99.90;;;;;;5037184;28;20793;-76
2023/03/19 06:27:20;;;;;;;1999.90;999.90;;;8.30;99.90;;;;;;5035964;28;20053;-75
2023/03/19 06:29:46;;;;;;;1999.90;999.90;;;8.40;99.90;;;;;;5037172;28;20392;-76
2023/03/19 06:32:12;;;;;;;1999.90;999.90;;;8.60;99.90;;;;;;5037189;28;20156;-76
2023/03/19 06:34:38;;;;;;;1999.90;999.90;;;8.60;99.90;;;;;;5036823;28;20037;-76
2023/03/19 06:37:03;;;;;;;1999.90;999.90;;;8.80;99.90;;;;;;5035721;28;20061;-76
2023/03/19 06:39:29;;;;;;;1999.90;999.90;;;8.90;99.90;;;;;;5037105;28;20037;-76
2023/03/19 06:41:54;;;;;;;1999.90;999.90;;;9.00;99.90;;;;;;5037211;28;20488;-76
2023/03/19 06:44:20;;;;;;;1999.90;999.90;;;9.10;99.90;;;;;;5036842;28;20037;-76
2023/03/19 06:46:45;;;;;;;1999.90;999.90;;;9.20;99.90;;;;;;5035520;28;20026;-76
2023/03/19 06:49:11;;;;;;;1999.90;999.90;;;9.30;99.90;;;;;;5036882;28;20026;-76
2023/03/19 06:51:36;;;;;;;1999.90;999.90;;;9.30;99.90;;;;;;5036393;28;20041;-76
2023/03/19 06:54:02;;;;;;;1999.90;999.90;;;9.50;99.90;;;;;;5036494;28;20034;-76
2023/03/19 06:56:28;;;;;;;1999.90;999.90;;;9.50;99.90;;;;;;5035361;28;20036;-76
2023/03/19 06:58:54;;;;;;;1999.90;999.90;;;9.60;99.90;;;;;;5036594;28;20196;-76
2023/03/19 07:01:20;;;;;;;1999.90;999.90;;;9.80;99.90;;;;;;5035549;28;20542;-76
2023/03/19 07:03:46;;;;;;;1999.90;999.90;;;10.00;99.90;;;;;;5035469;28;20041;-76
2023/03/19 07:06:11;;;;;;;1999.90;999.90;;;10.10;99.90;;;;;;5036697;28;20037;-76
2023/03/19 07:08:37;;;;;;;1999.90;999.90;;;10.20;99.90;;;;;;5036427;28;20044;-76
2023/03/19 07:11:04;;;;;;;1999.90;999.90;;;10.40;99.90;;;;;;5036797;28;20129;-76
2023/03/19 07:13:30;;;;;;;1999.90;999.90;;;10.50;99.90;;;;;;5036538;28;20070;-76
2023/03/19 07:15:56;;;;;;;1999.90;999.90;;;10.40;99.90;;;;;;5034897;28;20057;-76
2023/03/19 07:18:21;;;;;;;1999.90;999.90;;;10.40;99.90;;;;;;5036120;28;20091;-76
2023/03/19 07:20:47;;;;;;;1999.90;999.90;;;10.40;99.90;;;;;;5036495;28;20041;-76
2023/03/19 07:23:12;;;;;;;1999.90;999.90;;;10.60;99.90;;;;;;5036573;28;20034;-76
2023/03/19 07:25:38;;;;;;;1999.90;999.90;;;10.60;99.90;;;;;;5036299;28;20034;-76
2023/03/19 07:28:04;;;;;;;1999.90;999.90;;;10.60;99.90;;;;;;5036350;28;20088;-76
2023/03/19 07:30:29;;;;;;;1999.90;999.90;;;10.60;99.90;;;;;;5036410;28;20034;-76
2023/03/19 07:32:55;;;;;;;1999.90;999.90;;;10.70;99.90;;;;;;5036601;28;20046;-76
2023/03/19 07:35:21;;;;;;;1999.90;999.90;;;10.80;99.90;;;;;;5036105;28;20034;-76
2023/03/19 07:37:46;;;;;;;1999.90;999.90;;;10.80;99.90;;;;;;5036296;28;20128;-75
2023/03/19 07:40:12;;;;;;;1999.90;999.90;;;10.90;99.90;;;;;;5036001;28;20041;-75
2023/03/19 07:42:38;;;;;;;1999.90;999.90;;;10.80;99.90;;;;;;5036290;28;20030;-76
2023/03/19 07:45:05;;;;;;;1999.90;999.90;;;10.80;99.90;;;;;;5035901;28;20024;-76
2023/03/19 07:47:31;;;;;;;1999.90;999.90;;;10.90;99.90;;;;;;5035858;28;20034;-76
2023/03/19 07:49:57;;;;;;;1999.90;999.90;;;10.90;99.90;;;;;;5035904;28;20029;-76
2023/03/19 07:52:26;;;;;;;1999.90;999.90;;;10.80;99.90;;;;;;5036010;28;20900;-76
2023/03/19 07:54:52;;;;;;;1999.90;999.90;;;10.80;99.90;;;;;;5035426;28;20577;-76
2023/03/19 07:57:18;;;;;;;1999.90;999.90;;;10.90;99.90;;;;;;5034424;28;20042;-76
2023/03/19 07:59:44;;;;;;;1999.90;999.90;;;10.90;99.90;;;;;;5036064;28;20782;-76
2023/03/19 08:02:12;;;;;;;1999.90;999.90;;;10.90;99.90;;;;;;5034567;28;20435;-76
2023/03/19 08:04:39;;;;;;;1999.90;999.90;;;10.90;99.90;;;;;;5035458;28;20065;-75
2023/03/19 08:07:05;;;;;;;1999.90;999.90;;;10.80;99.90;;;;;;5034285;28;20037;-75
2023/03/19 08:09:31;;;;;;;1999.90;999.90;;;10.80;99.90;;;;;;5033791;28;20041;-75
2023/03/19 08:11:56;;;;;;;1999.90;999.90;;;11.00;99.90;;;;;;5035701;28;20041;-75
2023/03/19 08:14:22;;;;;;;1999.90;999.90;;;11.20;99.90;;;;;;5033682;28;20113;-75
2023/03/19 08:16:48;;;;;;;1999.90;999.90;;;11.30;99.90;;;;;;5033503;28;20109;-75
2023/03/19 08:19:15;;;;;;;1999.90;999.90;;;11.40;99.90;;;;;;5035550;28;20495;-75
2023/03/19 08:21:41;;;;;;;1999.90;999.90;;;11.60;99.90;;;;;;5035546;28;20038;-75
2023/03/19 08:24:07;;;;;;;1999.90;999.90;;;11.80;99.90;;;;;;5033831;28;20038;-75
2023/03/19 08:26:32;;;;;;;1999.90;999.90;;;11.80;99.90;;;;;;5034046;28;20042;-75
2023/03/19 08:28:58;;;;;;;1999.90;999.90;;;12.10;99.90;;;;;;5035283;28;20052;-75
2023/03/19 08:31:24;;;;;;;1999.90;999.90;;;12.30;99.90;;;;;;5035175;28;20513;-76
2023/03/19 08:33:50;;;;;;;1999.90;999.90;;;12.40;99.90;;;;;;5035159;28;20038;-76
2023/03/19 08:36:15;;;;;;;1999.90;999.90;;;12.60;99.90;;;;;;5035271;28;20042;-75
2023/03/19 08:38:42;;;;;;;1999.90;999.90;;;12.70;99.90;;;;;;5035040;28;20439;-75
2023/03/19 08:41:08;;;;;;;1999.90;999.90;;;12.90;99.90;;;;;;5035402;28;20065;-75
2023/03/19 08:43:38;;;;;;;1999.90;999.90;;;13.00;99.90;;;;;;5035130;28;20041;-75
2023/03/19 08:46:04;;;;;;;1999.90;999.90;;;13.10;99.90;;;;;;5034636;28;20081;-75
2023/03/19 08:48:30;;;;;;;1999.90;999.90;;;13.10;99.90;;;;;;5034939;28;20030;-76
2023/03/19 08:50:59;;;;;;;1999.90;999.90;;;13.00;99.90;;;;;;5033626;28;20442;-76
2023/03/19 08:53:25;;;;;;;1999.90;999.90;;;13.20;99.90;;;;;;5034877;28;20570;-75
2023/03/19 08:55:53;;;;;;;1999.90;999.90;;;13.40;99.90;;;;;;5034519;28;20088;-75
2023/03/19 08:58:19;;;;;;;1999.90;999.90;;;13.30;99.90;;;;;;5034213;28;20048;-75
2023/03/19 09:00:46;;;;;;;1999.90;999.90;;;13.40;99.90;;;;;;5033431;28;20499;-75
2023/03/19 09:03:11;;;;;;;1999.90;999.90;;;13.50;99.90;;;;;;5034730;28;20036;-75
2023/03/19 09:05:37;;;;;;;1999.90;999.90;;;13.60;99.90;;;;;;5034651;28;20040;-75
2023/03/19 09:08:02;;;;;;;1999.90;999.90;;;13.70;99.90;;;;;;5033289;28;20124;-75
2023/03/19 09:10:28;;;;;;;1999.90;999.90;;;13.60;99.90;;;;;;5034535;28;20041;-75
2023/03/19 09:12:54;;;;;;;1999.90;999.90;;;13.50;99.90;;;;;;5032918;28;20443;-75
2023/03/19 09:15:19;;;;;;;1999.90;999.90;;;13.60;99.90;;;;;;5034262;28;20050;-75
2023/03/19 09:17:45;;;;;;;1999.90;999.90;;;13.50;99.90;;;;;;5034352;28;20487;-75
2023/03/19 09:20:11;;;;;;;1999.90;999.90;;;13.70;99.90;;;;;;5033093;28;20527;-75
2023/03/19 09:22:36;;;;;;;1999.90;999.90;;;14.10;99.90;;;;;;5034637;28;20041;-75
2023/03/19 09:25:02;;;;;;;1999.90;999.90;;;14.40;99.90;;;;;;5034388;28;20085;-76
2023/03/19 09:27:28;;;;;;;1999.90;999.90;;;14.30;99.90;;;;;;5034792;28;20116;-75
2023/03/19 09:29:54;;;;;;;1999.90;999.90;;;14.10;99.90;;;;;;5034669;28;20801;-75
2023/03/19 09:32:20;;;;;;;1999.90;999.90;;;13.90;99.90;;;;;;5033010;28;20041;-75
2023/03/19 09:34:46;;;;;;;1999.90;999.90;;;13.80;99.90;;;;;;5032817;28;20030;-76
2023/03/19 09:37:12;;;;;;;1999.90;999.90;;;13.90;99.90;;;;;;5032800;28;20034;-75
2023/03/19 09:39:37;;;;;;;1999.90;999.90;;;14.00;99.90;;;;;;5033799;28;20038;-75
2023/03/19 09:42:44;;;;;;;1999.90;999.90;;;14.00;99.90;;;;;;5034465;28;20484;-75
2023/03/19 09:45:15;;;;;;;1999.90;999.90;;;14.10;99.90;;;;;;5027337;28;20049;-75
2023/03/19 09:47:42;;;;;;;1999.90;999.90;;;14.20;99.90;;;;;;5032788;28;20116;-75
2023/03/19 09:50:19;;;;;;;1999.90;999.90;;;14.30;99.90;;;;;;5033879;28;20033;-75
2023/03/19 09:52:53;;;;;;;1999.90;999.90;;;14.40;99.90;;;;;;5034344;28;20037;-75
2023/03/19 09:55:30;;;;;;;1999.90;999.90;;;14.60;99.90;;;;;;5033880;28;20041;-75
2023/03/19 09:57:57;;;;;;;1999.90;999.90;;;14.90;99.90;;;;;;5034387;28;20034;-75
2023/03/19 10:00:26;;;;;;;1999.90;999.90;;;15.00;99.90;;;;;;5033697;28;20038;-75
2023/03/19 10:03:11;;;;;;;1999.90;999.90;;;15.00;99.90;;;;;;5032577;28;20042;-75
2023/03/19 10:05:57;;;;;;;1999.90;999.90;;;15.10;99.90;;;;;;5033954;28;20789;-75
2023/03/19 10:08:32;;;;;;;1999.90;999.90;;;14.80;99.90;;;;;;5034048;28;20416;-75
2023/03/19 10:11:15;;;;;;;1999.90;999.90;;;14.80;99.90;;;;;;5034214;28;20026;-75
2023/03/19 10:14:09;;;;;;;1999.90;999.90;;;14.80;99.90;;;;;;5034023;28;20034;-76
2023/03/19 10:16:38;;;;;;;1999.90;999.90;;;15.00;99.90;;;;;;5034042;28;20062;-75
2023/03/19 10:19:05;;;;;;;1999.90;999.90;;;15.10;99.90;;;;;;5033612;28;20038;-75
2023/03/19 10:21:51;;;;;;;1999.90;999.90;;;15.30;99.90;;;;;;5032423;28;20547;-75
2023/03/19 10:24:33;;;;;;;1999.90;999.90;;;15.50;99.90;;;;;;5033883;28;20030;-75
2023/03/19 10:27:13;;;;;;;1999.90;999.90;;;15.70;99.90;;;;;;5036825;28;20042;-75
2023/03/19 10:29:40;;;;;;;1999.90;999.90;;;15.80;99.90;;;;;;5036795;28;20472;-75
2023/03/19 10:32:18;;;;;;;1999.90;999.90;;;15.90;99.80;;;;;;5036957;28;20061;-75
2023/03/19 10:34:49;;;;;;;1999.90;999.90;;;16.00;99.90;;;;;;5035600;28;20038;-75
2023/03/19 10:37:28;;;;;;;1999.90;999.90;;;16.10;99.90;;;;;;5037195;28;20500;-76
2023/03/19 10:39:59;;;;;;;1999.90;999.90;;;16.20;97.70;;;;;;5036714;28;20085;-76
2023/03/19 10:42:47;;;;;;;1999.90;999.90;;;16.20;98.50;;;;;;5037148;28;20492;-75
2023/03/19 10:45:31;;;;;;;1999.90;999.90;;;16.30;97.80;;;;;;5036804;28;20030;-75
2023/03/19 10:47:58;;;;;;;1999.90;999.90;;;16.50;97.80;;;;;;5035238;28;20041;-75
2023/03/19 10:50:50;;;;;;;1999.90;999.90;;;16.50;97.00;;;;;;5036831;28;20165;-75
2023/03/19 10:53:15;;;;;;;1999.90;999.90;;;16.60;96.50;;;;;;5035406;28;20096;-76
2023/03/19 10:55:46;;;;;;;1999.90;999.90;;;16.70;96.80;;;;;;5036552;28;20107;-76
2023/03/19 10:58:17;;;;;;;1999.90;999.90;;;16.80;96.10;;;;;;5036724;28;20034;-76
2023/03/19 11:00:48;;;;;;;1999.90;999.90;;;16.90;95.60;;;;;;5036150;28;20095;-76
2023/03/19 11:03:28;;;;;;;1999.90;999.90;;;17.10;95.50;;;;;;5035391;28;20045;-76
2023/03/19 11:06:17;;;;;;;1999.90;999.90;;;17.10;93.70;;;;;;5036238;28;20030;-75
2023/03/19 11:08:59;;;;;;;1999.90;999.90;;;17.00;92.70;;;;;;5036318;28;20038;-75
2023/03/19 11:11:44;;;;;;;1999.90;999.90;;;17.10;95.60;;;;;;5036426;28;20129;-76
2023/03/19 11:14:35;;;;;;;1999.90;999.90;;;17.20;94.10;;;;;;5036381;28;20034;-76
2023/03/19 11:17:24;;;;;;;1999.90;999.90;;;17.30;94.80;;;;;;5036658;28;20033;-75
2023/03/19 11:19:56;;;;;;;1999.90;999.90;;;17.50;93.50;;;;;;5036400;28;20034;-75
2023/03/19 11:22:23;;;;;;;1999.90;999.90;;;17.50;93.40;;;;;;5036419;28;20041;-75
2023/03/19 11:25:01;;;;;;;1999.90;999.90;;;17.50;91.80;;;;;;5034752;28;20077;-75
2023/03/19 11:27:30;;;;;;;1999.90;999.90;;;17.20;91.50;;;;;;5035900;28;20038;-75
2023/03/19 11:29:55;;;;;;;1999.90;999.90;;;17.30;92.60;;;;;;5036022;28;20037;-75
2023/03/19 11:32:24;;;;;;;1999.90;999.90;;;17.30;91.00;;;;;;5036260;28;20399;-75
2023/03/19 11:34:49;;;;;;;1999.90;999.90;;;17.30;90.20;;;;;;5036041;28;20030;-76
2023/03/19 11:37:21;;;;;;;1999.90;999.90;;;17.40;90.00;;;;;;5036142;28;20562;-76
2023/03/19 11:40:13;;;;;;;1999.90;999.90;;;17.40;90.80;;;;;;5034478;28;20033;-75
2023/03/19 11:42:55;;;;;;;1999.90;999.90;;;17.50;90.60;;;;;;5036096;28;20093;-75
2023/03/19 11:45:40;;;;;;;1999.90;999.90;;;17.90;89.70;;;;;;5034380;28;20034;-76
2023/03/19 11:48:24;;;;;;;1999.90;999.90;;;17.80;87.70;;;;;;5036398;28;20033;-75
2023/03/19 11:51:00;;;;;;;1999.90;999.90;;;17.80;90.80;;;;;;5034537;28;20503;-75
2023/03/19 11:53:35;;;;;;;1999.90;999.90;;;18.00;90.30;;;;;;5036008;28;20069;-76
2023/03/19 11:56:13;;;;;;;1999.90;999.90;;;18.20;86.90;;;;;;5034201;28;20029;-76
2023/03/19 11:59:12;;;;;;;1999.90;999.90;;;18.20;86.70;;;;;;5035437;28;20042;-75
2023/03/19 12:02:08;;;;;;;1999.90;999.90;;;18.20;84.90;;;;;;5035983;28;20101;-75
2023/03/19 12:04:52;;;;;;;1999.90;999.90;;;18.50;89.90;;;;;;5035565;28;20044;-76
2023/03/19 12:07:50;;;;;;;1999.90;999.90;;;18.60;84.60;;;;;;5034095;28;20029;-76
2023/03/19 12:10:37;;;;;;;1999.90;999.90;;;18.80;85.60;;;;;;5034103;28;20038;-75